Terminal Aerodrome Forecast
Issued by NWS Cleveland, OH

Home | Current Version | Previous Version | Text Only | Print | Product List | Glossary On
Versions: 1 2 3 4 5 6 7 8 9 10 11 12
000
FTUS41 KCLE 230541
TAFMFD
TAF
KMFD 230541Z 2306/2406 17010KT P6SM OVC250
     FM231200 16010KT P6SM OVC100
     FM231500 15012G20KT P6SM VCSH OVC060
     FM231700 15015G25KT 6SM -SHRA OVC040
     FM231900 16018G28KT 5SM RA OVC015
     FM240200 20015G25KT P6SM RA OVC015
     FM240400 23015G25KT 6SM -SHRA OVC015=

USA.gov is the U.S. government's official web portal to all federal, state and local government web resources and services.